createdAt,value
2023-05-18T00:06:15.505Z,12.77
2023-05-18T00:12:58.217Z,14.50
2023-05-18T00:19:40.857Z,11.60
2023-05-18T00:26:23.513Z,14.38
2023-05-18T00:33:10.870Z,10.63
2023-05-18T00:39:53.678Z,14.02
2023-05-18T00:46:36.980Z,12.95
2023-05-18T00:53:20.205Z,12.00
2023-05-18T01:00:05.136Z,12.23
2023-05-18T01:06:48.425Z,10.93
2023-05-18T01:13:42.104Z,14.07
2023-05-18T01:20:28.606Z,15.70
2023-05-18T01:27:14.682Z,12.45
2023-05-18T01:33:57.103Z,12.52
2023-05-18T01:40:52.508Z,10.05
2023-05-18T01:47:35.860Z,12.13
2023-05-18T01:54:21.129Z,12.65
2023-05-18T02:01:04.489Z,9.50
2023-05-18T02:07:49.935Z,16.38
2023-05-18T02:14:32.765Z,11.15
2023-05-18T02:21:15.955Z,14.27
2023-05-18T02:27:58.688Z,12.23
2023-05-18T02:34:42.176Z,11.02
2023-05-18T02:41:24.540Z,11.55
2023-05-18T02:48:07.004Z,14.48
2023-05-18T02:54:49.536Z,12.10
2023-05-18T03:01:40.095Z,11.70
2023-05-18T03:08:23.147Z,11.48
2023-05-18T03:15:06.126Z,9.55
2023-05-18T03:21:49.402Z,11.95
2023-05-18T03:28:32.553Z,12.95
2023-05-18T03:35:16.079Z,12.77
2023-05-18T03:41:58.657Z,12.75
2023-05-18T03:48:41.249Z,12.10
2023-05-18T03:55:24.195Z,11.10
2023-05-18T04:02:07.614Z,10.18
2023-05-18T04:08:50.249Z,9.77
2023-05-18T04:15:33.675Z,11.52
2023-05-18T04:22:16.923Z,11.57
2023-05-18T04:29:00.587Z,12.57
2023-05-18T04:35:44.462Z,11.48
2023-05-18T04:42:27.700Z,9.93
2023-05-18T04:49:11.698Z,9.95
2023-05-18T04:55:54.514Z,12.63
2023-05-18T05:02:37.018Z,10.02
2023-05-18T05:09:20.686Z,10.40
2023-05-18T05:16:03.354Z,8.05
2023-05-18T05:29:31.174Z,10.00
2023-05-18T05:36:13.626Z,8.93
2023-05-18T05:42:56.337Z,6.53
2023-05-18T05:49:39.338Z,8.23
2023-05-18T05:56:22.956Z,5.70
2023-05-18T06:03:06.042Z,8.02
2023-05-18T06:09:55.169Z,7.70
2023-05-18T06:16:38.379Z,6.70
2023-05-18T06:23:22.750Z,7.78
2023-05-18T06:30:17.057Z,8.38
2023-05-18T06:37:22.999Z,5.88
2023-05-18T06:44:05.759Z,8.93
2023-05-18T06:50:52.126Z,7.20
2023-05-18T06:57:34.779Z,6.65
2023-05-18T07:04:19.241Z,7.13
2023-05-18T07:11:02.704Z,9.13
2023-05-18T07:17:45.492Z,6.05
2023-05-18T07:24:27.884Z,7.72
2023-05-18T07:31:10.532Z,6.63
2023-05-18T07:37:53.983Z,8.68
2023-05-18T07:44:36.394Z,9.65
2023-05-18T07:51:18.748Z,8.32
2023-05-18T07:58:01.285Z,6.05
2023-05-18T08:04:43.609Z,7.93
2023-05-18T08:11:26.126Z,5.25
2023-05-18T08:18:08.479Z,7.13
2023-05-18T08:24:50.947Z,8.75
2023-05-18T08:31:33.294Z,7.53
2023-05-18T08:38:16.761Z,5.32
2023-05-18T08:45:17.872Z,6.82
2023-05-18T08:52:04.301Z,8.73
2023-05-18T08:58:50.228Z,9.93
2023-05-18T09:05:33.433Z,4.97
2023-05-18T09:12:18.857Z,8.15
2023-05-18T09:19:01.418Z,11.85
2023-05-18T09:25:45.972Z,7.05
2023-05-18T09:32:29.604Z,10.15
2023-05-18T09:39:12.386Z,7.70
2023-05-18T09:45:54.959Z,5.80
2023-05-18T09:52:42.565Z,9.80
2023-05-18T09:59:24.978Z,10.25
2023-05-18T10:06:09.192Z,7.40
2023-05-18T10:12:54.676Z,7.65
2023-05-18T10:19:39.737Z,7.10
2023-05-18T10:26:26.520Z,7.85
2023-05-18T10:33:20.603Z,6.90
2023-05-18T10:40:08.702Z,6.47
2023-05-18T10:46:51.958Z,8.45
2023-05-18T10:53:34.634Z,8.05
2023-05-18T11:00:17.189Z,12.32
2023-05-18T11:07:00.625Z,7.68
2023-05-18T11:13:49.172Z,6.30
2023-05-18T11:20:31.608Z,7.10
2023-05-18T11:27:16.204Z,7.78
2023-05-18T11:33:58.496Z,8.55
2023-05-18T11:40:49.082Z,7.25
2023-05-18T11:47:31.822Z,6.18
2023-05-18T11:54:14.263Z,5.82
2023-05-18T12:00:57.639Z,9.02
2023-05-18T12:07:41.028Z,7.72
2023-05-18T12:14:24.216Z,6.32
2023-05-18T12:21:07.031Z,5.90
2023-05-18T12:27:51.757Z,6.63
2023-05-18T12:34:34.167Z,4.32
2023-05-18T12:41:26.645Z,8.63
2023-05-18T12:48:10.480Z,8.25
2023-05-18T12:54:58.577Z,7.28
2023-05-18T13:01:44.406Z,5.88
2023-05-18T13:08:26.714Z,3.90
2023-05-18T13:15:16.392Z,6.10
2023-05-18T13:21:58.683Z,8.15
2023-05-18T13:28:41.221Z,5.53
2023-05-18T13:35:23.609Z,4.78
2023-05-18T13:42:07.241Z,9.32
2023-05-18T13:48:49.583Z,6.80
2023-05-18T13:55:33.231Z,7.82
2023-05-18T14:02:15.909Z,9.15
2023-05-18T14:08:58.150Z,6.72
2023-05-18T14:15:40.630Z,5.78
2023-05-18T14:22:23.149Z,6.53
2023-05-18T14:29:05.497Z,6.90
2023-05-18T14:35:47.793Z,5.50
2023-05-18T14:42:30.100Z,6.57
2023-05-18T14:49:12.602Z,6.57
2023-05-18T14:55:54.945Z,7.28
2023-05-18T15:02:37.342Z,6.18
2023-05-18T15:09:19.757Z,5.13
2023-05-18T15:16:02.609Z,7.57
2023-05-18T15:22:45.016Z,6.70
2023-05-18T15:29:27.677Z,6.03
2023-05-18T15:36:10.095Z,8.43
2023-05-18T15:42:52.424Z,7.07
2023-05-18T15:49:34.895Z,7.65
2023-05-18T15:56:18.771Z,7.32
2023-05-18T16:03:01.254Z,6.22
2023-05-18T16:09:43.644Z,6.95
2023-05-18T16:16:26.556Z,6.40
2023-05-18T16:23:08.852Z,7.32
2023-05-18T16:29:52.184Z,5.00
2023-05-18T16:36:34.721Z,6.50
2023-05-18T16:43:16.933Z,6.82
2023-05-18T16:49:59.500Z,5.60
2023-05-18T16:56:41.756Z,7.22
2023-05-18T17:03:24.544Z,6.57
2023-05-18T17:10:07.304Z,8.77
2023-05-18T17:16:49.666Z,8.45
2023-05-18T17:23:31.909Z,10.25
2023-05-18T17:30:14.378Z,10.05
2023-05-18T17:36:59.876Z,10.77
2023-05-18T17:43:42.111Z,8.35
2023-05-18T17:50:24.652Z,4.60
2023-05-18T17:57:06.916Z,12.63
2023-05-18T18:03:49.546Z,7.32
2023-05-18T18:10:33.256Z,6.65
2023-05-18T18:17:15.842Z,7.95
2023-05-18T18:23:58.279Z,5.25
2023-05-18T18:30:42.127Z,8.27
2023-05-18T18:37:24.448Z,6.97
2023-05-18T18:44:06.772Z,4.97
2023-05-18T18:50:49.422Z,6.70
2023-05-18T18:57:33.256Z,7.03
2023-05-18T19:04:15.679Z,8.75
2023-05-18T19:10:58.187Z,7.47
2023-05-18T19:17:41.448Z,9.13
2023-05-18T19:24:23.807Z,9.18
2023-05-18T19:31:10.185Z,7.80
2023-05-18T19:37:53.052Z,8.52
2023-05-18T19:44:36.129Z,6.43
2023-05-18T19:51:18.711Z,6.70
2023-05-18T19:58:01.091Z,8.63
2023-05-18T20:04:43.521Z,7.22
2023-05-18T20:11:25.908Z,7.95
2023-05-18T20:18:08.603Z,8.65
2023-05-18T20:24:51.390Z,12.63
2023-05-18T20:31:33.796Z,8.65
2023-05-18T20:38:16.900Z,6.65
2023-05-18T20:44:59.365Z,8.13
2023-05-18T20:51:41.917Z,8.27
2023-05-18T20:58:26.272Z,9.88
2023-05-18T21:05:08.870Z,9.50
2023-05-18T21:11:51.314Z,8.13
2023-05-18T21:18:34.644Z,8.35
2023-05-18T21:25:17.764Z,7.30
2023-05-18T21:32:00.515Z,7.72
2023-05-18T21:38:43.132Z,9.45
2023-05-18T21:45:25.469Z,8.75
2023-05-18T21:52:07.807Z,8.18
2023-05-18T21:58:55.413Z,7.50
2023-05-18T22:05:37.922Z,7.15
2023-05-18T22:12:21.207Z,5.72
2023-05-18T22:19:03.637Z,7.28
2023-05-18T22:25:46.495Z,8.85
2023-05-18T22:32:28.992Z,5.35
2023-05-18T22:39:11.489Z,5.40
2023-05-18T22:45:54.023Z,8.27
2023-05-18T22:52:38.210Z,5.38
2023-05-18T22:59:20.661Z,8.30
2023-05-18T23:06:03.147Z,5.13
2023-05-18T23:12:46.150Z,7.15
2023-05-18T23:19:28.527Z,7.28
2023-05-18T23:26:11.165Z,9.45
2023-05-18T23:32:54.512Z,5.65
2023-05-18T23:39:41.365Z,9.55
2023-05-18T23:46:24.476Z,5.40
2023-05-18T23:53:07.653Z,5.78
2023-05-18T23:59:50.840Z,8.50
